createdAt,value
2022-12-29T00:01:15.309Z,8.80
2022-12-29T00:03:43.881Z,8.80
2022-12-29T00:06:32.096Z,8.80
2022-12-29T00:09:19.566Z,8.80
2022-12-29T00:11:48.606Z,8.90
2022-12-29T00:14:34.556Z,8.90
2022-12-29T00:17:04.997Z,8.90
2022-12-29T00:19:50.876Z,8.90
2022-12-29T00:22:37.037Z,8.90
2022-12-29T00:25:24.277Z,9.00
2022-12-29T00:28:09.770Z,9.00
2022-12-29T00:30:56.332Z,9.00
2022-12-29T00:33:47.969Z,9.00
2022-12-29T00:36:20.084Z,9.00
2022-12-29T00:39:08.889Z,9.10
2022-12-29T00:41:55.077Z,9.10
2022-12-29T00:44:23.700Z,9.10
2022-12-29T00:46:52.222Z,9.10
2022-12-29T00:49:33.736Z,9.10
2022-12-29T00:52:04.716Z,9.20
2022-12-29T00:54:36.179Z,9.10
2022-12-29T00:57:05.539Z,9.10
2022-12-29T00:59:33.998Z,9.20
2022-12-29T01:02:02.686Z,9.20
2022-12-29T01:04:32.657Z,9.20
2022-12-29T01:07:01.564Z,9.20
2022-12-29T01:09:47.555Z,9.20
2022-12-29T01:12:16.336Z,9.30
2022-12-29T01:14:46.766Z,9.20
2022-12-29T01:17:15.336Z,9.20
2022-12-29T01:19:45.245Z,9.20
2022-12-29T01:22:13.750Z,9.20
2022-12-29T01:24:42.607Z,9.30
2022-12-29T01:27:11.169Z,9.20
2022-12-29T01:29:39.653Z,9.30
2022-12-29T01:32:08.277Z,9.30
2022-12-29T01:34:36.837Z,9.30
2022-12-29T01:37:06.714Z,9.30
2022-12-29T01:39:35.736Z,9.30
2022-12-29T01:42:04.251Z,9.30
2022-12-29T01:44:55.292Z,9.30
2022-12-29T01:47:35.764Z,9.30
2022-12-29T01:50:09.331Z,9.30
2022-12-29T01:52:44.533Z,9.30
2022-12-29T01:55:14.257Z,9.30
2022-12-29T01:57:48.620Z,9.30
2022-12-29T02:00:18.176Z,9.40
2022-12-29T02:02:51.348Z,9.40
2022-12-29T02:05:27.165Z,9.40
2022-12-29T02:07:57.095Z,9.40
2022-12-29T02:10:28.595Z,9.40
2022-12-29T02:12:57.163Z,9.40
2022-12-29T02:15:38.317Z,9.40
2022-12-29T02:18:19.995Z,9.40
2022-12-29T02:21:38.446Z,9.40
2022-12-29T02:24:49.743Z,9.40
2022-12-29T02:27:52.778Z,9.40
2022-12-29T02:30:42.476Z,9.40
2022-12-29T02:33:24.362Z,9.40
2022-12-29T02:36:01.247Z,9.40
2022-12-29T02:38:41.774Z,9.40
2022-12-29T02:41:15.897Z,9.40
2022-12-29T02:43:51.476Z,9.50
2022-12-29T02:46:30.289Z,9.40
2022-12-29T02:49:08.206Z,9.40
2022-12-29T02:51:42.187Z,9.50
2022-12-29T02:54:28.292Z,9.50
2022-12-29T02:56:56.774Z,9.50
2022-12-29T02:59:25.770Z,9.50
2022-12-29T03:02:19.079Z,9.50
2022-12-29T03:05:02.641Z,9.50
2022-12-29T03:07:42.321Z,9.60
2022-12-29T03:10:20.334Z,9.60
2022-12-29T03:13:13.602Z,9.60
2022-12-29T03:16:02.345Z,9.60
2022-12-29T03:18:43.178Z,9.60
2022-12-29T03:21:16.975Z,9.60
2022-12-29T03:23:50.606Z,9.60
2022-12-29T03:26:21.640Z,9.60
2022-12-29T03:28:55.173Z,9.60
2022-12-29T03:31:26.534Z,9.60
2022-12-29T03:33:59.158Z,9.60
2022-12-29T03:36:32.994Z,9.60
2022-12-29T03:39:08.554Z,9.60
2022-12-29T03:41:38.767Z,9.70
2022-12-29T03:44:08.793Z,9.70
2022-12-29T03:46:37.379Z,9.70
2022-12-29T03:49:06.964Z,9.70
2022-12-29T03:51:35.504Z,9.70
2022-12-29T03:54:04.964Z,9.80
2022-12-29T03:56:33.554Z,9.80
2022-12-29T03:59:06.320Z,9.80
2022-12-29T04:01:36.010Z,9.80
2022-12-29T04:04:04.634Z,9.80
2022-12-29T04:06:34.548Z,9.80
2022-12-29T04:09:03.092Z,9.80
2022-12-29T04:11:33.430Z,9.80
2022-12-29T04:14:03.266Z,9.80
2022-12-29T04:16:31.844Z,9.80
2022-12-29T04:19:00.313Z,9.80
2022-12-29T04:21:28.833Z,9.80
2022-12-29T04:23:58.820Z,9.80
2022-12-29T04:26:27.700Z,9.80
2022-12-29T04:28:56.219Z,9.90
2022-12-29T04:31:24.745Z,9.90
2022-12-29T04:33:53.296Z,9.90
2022-12-29T04:36:26.480Z,9.90
2022-12-29T04:38:59.680Z,9.90
2022-12-29T04:41:28.388Z,9.90
2022-12-29T04:43:56.825Z,9.90
2022-12-29T04:46:25.382Z,9.90
2022-12-29T04:48:54.081Z,9.90
2022-12-29T04:51:22.624Z,9.90
2022-12-29T04:53:51.178Z,9.90
2022-12-29T04:56:21.165Z,9.80
2022-12-29T04:58:49.625Z,9.80
2022-12-29T05:01:18.207Z,9.80
2022-12-29T05:03:46.852Z,9.80
2022-12-29T05:06:15.406Z,9.80
2022-12-29T05:08:43.894Z,9.80
2022-12-29T05:11:12.445Z,9.80
2022-12-29T05:13:42.301Z,9.80
2022-12-29T05:16:10.904Z,9.80
2022-12-29T05:18:39.736Z,9.80
2022-12-29T05:21:08.295Z,9.80
2022-12-29T05:23:36.751Z,9.80
2022-12-29T05:26:05.452Z,9.80
2022-12-29T05:28:33.952Z,9.90
2022-12-29T05:31:03.949Z,9.90
2022-12-29T05:33:32.687Z,9.90
2022-12-29T05:36:06.810Z,9.90
2022-12-29T05:38:36.277Z,9.80
2022-12-29T05:41:04.750Z,9.80
2022-12-29T05:43:33.313Z,9.70
2022-12-29T05:46:04.035Z,9.80
2022-12-29T05:48:37.672Z,9.80
2022-12-29T05:51:06.994Z,9.80
2022-12-29T05:53:36.195Z,9.80
2022-12-29T05:56:05.120Z,9.80
2022-12-29T05:58:33.686Z,9.80
2022-12-29T06:01:03.615Z,9.80
2022-12-29T06:03:32.191Z,9.80
2022-12-29T06:06:00.880Z,9.90
2022-12-29T06:08:32.214Z,9.90
2022-12-29T06:11:00.922Z,9.90
2022-12-29T06:13:29.937Z,9.90
2022-12-29T06:15:58.432Z,9.90
2022-12-29T06:18:28.465Z,10.00
2022-12-29T06:20:56.924Z,10.00
2022-12-29T06:23:25.532Z,10.00
2022-12-29T06:25:54.323Z,10.00
2022-12-29T06:28:23.192Z,10.00
2022-12-29T06:30:51.674Z,10.00
2022-12-29T06:33:20.274Z,10.00
2022-12-29T06:35:50.640Z,10.00
2022-12-29T06:38:19.266Z,10.00
2022-12-29T06:40:47.767Z,10.00
2022-12-29T06:43:16.234Z,10.00
2022-12-29T06:45:45.482Z,10.00
2022-12-29T06:48:14.407Z,9.90
2022-12-29T06:50:43.237Z,9.90
2022-12-29T06:53:13.106Z,9.90
2022-12-29T06:55:44.103Z,9.80
2022-12-29T06:58:12.695Z,9.70
2022-12-29T07:00:41.220Z,9.70
2022-12-29T07:03:09.754Z,9.60
2022-12-29T07:05:38.306Z,9.50
2022-12-29T07:08:07.108Z,9.50
2022-12-29T07:10:37.207Z,9.50
2022-12-29T07:13:05.827Z,9.50
2022-12-29T07:15:34.293Z,9.50
2022-12-29T07:18:02.917Z,9.50
2022-12-29T07:20:31.459Z,9.50
2022-12-29T07:22:59.976Z,9.50
2022-12-29T07:25:28.986Z,9.60
2022-12-29T07:27:58.936Z,9.60
2022-12-29T07:30:27.416Z,9.60
2022-12-29T07:32:56.152Z,9.60
2022-12-29T07:35:24.665Z,9.60
2022-12-29T07:37:53.167Z,9.60
2022-12-29T07:40:21.769Z,9.70
2022-12-29T07:42:50.272Z,9.70
2022-12-29T07:45:20.258Z,9.70
2022-12-29T07:47:51.057Z,9.70
2022-12-29T07:50:19.909Z,9.70
2022-12-29T07:52:49.039Z,9.70
2022-12-29T07:55:17.906Z,9.80
2022-12-29T07:57:46.479Z,9.80
2022-12-29T08:00:16.189Z,9.80
2022-12-29T08:02:46.189Z,9.90
2022-12-29T08:05:14.745Z,9.90
2022-12-29T08:07:44.890Z,9.90
2022-12-29T08:10:13.923Z,9.90
2022-12-29T08:12:43.849Z,9.90
2022-12-29T08:15:13.957Z,10.00
2022-12-29T08:17:42.443Z,9.90
2022-12-29T08:20:12.946Z,9.90
2022-12-29T08:22:42.956Z,9.90
2022-12-29T08:25:11.505Z,10.00
2022-12-29T08:27:40.070Z,9.90
2022-12-29T08:30:09.911Z,9.90
2022-12-29T08:32:38.374Z,9.90
2022-12-29T08:35:07.454Z,9.90
2022-12-29T08:37:37.668Z,9.90
2022-12-29T08:40:07.433Z,9.90
2022-12-29T08:42:36.007Z,9.90
2022-12-29T08:45:05.066Z,9.90
2022-12-29T08:47:33.538Z,9.90
2022-12-29T08:50:01.995Z,9.90
2022-12-29T08:52:30.515Z,9.90
2022-12-29T08:55:00.486Z,9.90
2022-12-29T08:57:29.095Z,10.00
2022-12-29T08:59:57.663Z,10.00
2022-12-29T09:02:26.246Z,10.10
2022-12-29T09:04:55.321Z,10.10
2022-12-29T09:07:23.884Z,10.10
2022-12-29T09:09:52.833Z,10.10
2022-12-29T09:12:22.894Z,10.10
2022-12-29T09:14:52.689Z,10.10
2022-12-29T09:17:41.647Z,10.00
2022-12-29T09:20:11.095Z,10.10
2022-12-29T09:22:39.724Z,10.10
2022-12-29T09:25:10.237Z,10.00
2022-12-29T09:27:40.234Z,10.00
2022-12-29T09:30:11.733Z,10.10
2022-12-29T09:32:44.820Z,10.10
2022-12-29T09:35:14.386Z,10.10
2022-12-29T09:37:43.384Z,10.10
2022-12-29T09:40:31.032Z,10.20
2022-12-29T09:43:34.844Z,10.30
2022-12-29T09:46:13.072Z,10.30
2022-12-29T09:48:46.616Z,10.30
2022-12-29T09:51:18.575Z,10.30
2022-12-29T09:53:52.775Z,10.40
2022-12-29T09:56:24.238Z,10.40
2022-12-29T09:59:00.172Z,10.50
2022-12-29T10:01:34.786Z,10.60
2022-12-29T10:04:06.420Z,10.60
2022-12-29T10:07:03.661Z,10.60
2022-12-29T10:09:36.914Z,10.60
2022-12-29T10:12:20.264Z,10.70
2022-12-29T10:15:04.937Z,10.80
2022-12-29T10:17:41.564Z,10.90
2022-12-29T10:20:31.455Z,11.00
2022-12-29T10:23:21.794Z,11.10
2022-12-29T10:25:51.017Z,11.10
2022-12-29T10:28:24.288Z,11.10
2022-12-29T10:30:56.645Z,11.00
2022-12-29T10:33:32.278Z,10.90
2022-12-29T10:36:01.108Z,10.90
2022-12-29T10:38:37.895Z,10.80
2022-12-29T10:41:15.817Z,10.80
2022-12-29T10:43:48.151Z,10.80
2022-12-29T10:46:22.717Z,10.70
2022-12-29T10:48:51.547Z,10.60
2022-12-29T10:51:24.956Z,10.60
2022-12-29T10:53:58.025Z,10.60
2022-12-29T10:56:35.079Z,10.70
2022-12-29T10:59:09.525Z,10.60
2022-12-29T11:01:55.337Z,10.50
2022-12-29T11:04:45.522Z,10.60
2022-12-29T11:07:16.370Z,10.50
2022-12-29T11:09:47.077Z,10.50
2022-12-29T11:12:27.224Z,10.50
2022-12-29T11:15:16.930Z,10.50
2022-12-29T11:17:51.758Z,10.50
2022-12-29T11:20:39.882Z,10.60
2022-12-29T11:23:26.287Z,10.60
2022-12-29T11:26:19.114Z,10.60
2022-12-29T11:28:49.426Z,10.50
2022-12-29T11:31:24.279Z,10.60
2022-12-29T11:33:54.166Z,10.50
2022-12-29T11:36:25.845Z,10.50
2022-12-29T11:38:57.069Z,10.50
2022-12-29T11:41:27.637Z,10.50
2022-12-29T11:44:02.004Z,10.60
2022-12-29T11:46:32.905Z,10.60
2022-12-29T11:49:04.393Z,10.70
2022-12-29T11:51:46.349Z,10.70
2022-12-29T11:54:22.081Z,10.60
2022-12-29T11:56:52.303Z,10.60
2022-12-29T11:59:44.848Z,10.50
2022-12-29T12:02:42.569Z,10.50
2022-12-29T12:05:31.695Z,10.40
2022-12-29T12:08:04.653Z,10.30
2022-12-29T12:10:38.705Z,10.20
2022-12-29T12:13:16.876Z,10.10
2022-12-29T12:15:54.533Z,10.00
2022-12-29T12:18:34.623Z,9.90
2022-12-29T12:21:16.411Z,9.80
2022-12-29T12:24:00.847Z,9.70
2022-12-29T12:26:35.524Z,9.70
2022-12-29T12:29:10.780Z,9.60
2022-12-29T12:31:48.134Z,9.50
2022-12-29T12:34:22.457Z,9.50
2022-12-29T12:37:09.448Z,9.50
2022-12-29T12:39:49.788Z,9.50
2022-12-29T12:42:31.843Z,9.40
2022-12-29T12:45:16.749Z,9.40
2022-12-29T12:47:59.533Z,9.40
2022-12-29T12:50:42.457Z,9.30
2022-12-29T12:53:28.446Z,9.30
2022-12-29T12:56:15.396Z,9.30
2022-12-29T12:58:53.177Z,9.20
2022-12-29T13:01:37.454Z,9.20
2022-12-29T13:04:37.888Z,9.20
2022-12-29T13:07:17.756Z,9.20
2022-12-29T13:10:03.560Z,9.20
2022-12-29T13:12:43.563Z,9.20
2022-12-29T13:15:21.653Z,9.20
2022-12-29T13:17:59.735Z,9.30
2022-12-29T13:20:35.837Z,9.30
2022-12-29T13:23:12.137Z,9.30
2022-12-29T13:25:48.300Z,9.40
2022-12-29T13:28:23.407Z,9.40
2022-12-29T13:31:00.369Z,9.30
2022-12-29T13:33:37.956Z,9.40
2022-12-29T13:36:13.154Z,9.30
2022-12-29T13:38:45.418Z,9.30
2022-12-29T13:41:21.415Z,9.30
2022-12-29T13:43:52.100Z,9.30
2022-12-29T13:46:26.118Z,9.30
2022-12-29T13:49:00.112Z,9.30
2022-12-29T13:51:30.394Z,9.20
2022-12-29T13:54:08.163Z,9.30
2022-12-29T13:56:43.026Z,9.20
2022-12-29T13:59:22.374Z,9.30
2022-12-29T14:01:58.640Z,9.20
2022-12-29T14:04:29.846Z,9.20
2022-12-29T14:07:04.416Z,9.20
2022-12-29T14:09:44.184Z,9.20
2022-12-29T14:12:31.488Z,9.20
2022-12-29T14:15:15.777Z,9.20
2022-12-29T14:17:44.579Z,9.20
2022-12-29T14:20:23.201Z,9.20
2022-12-29T14:23:00.439Z,9.20
2022-12-29T14:26:01.230Z,9.20
2022-12-29T14:28:32.686Z,9.20
2022-12-29T14:31:01.974Z,9.20
2022-12-29T14:33:34.024Z,9.20
2022-12-29T14:36:24.311Z,9.30
2022-12-29T14:38:52.979Z,9.30
2022-12-29T14:41:29.661Z,9.20
2022-12-29T14:44:03.896Z,9.10
2022-12-29T14:46:51.748Z,9.00
2022-12-29T14:49:23.389Z,9.00
2022-12-29T14:51:54.897Z,8.90
2022-12-29T14:54:51.017Z,8.80
2022-12-29T14:57:36.540Z,8.80
2022-12-29T15:00:17.450Z,8.70
2022-12-29T15:02:50.106Z,8.60
2022-12-29T15:05:34.391Z,8.60
2022-12-29T15:08:03.733Z,8.50
2022-12-29T15:10:39.541Z,8.50
2022-12-29T15:13:18.487Z,8.50
2022-12-29T15:15:48.863Z,8.40
2022-12-29T15:18:25.344Z,8.40
2022-12-29T15:20:56.293Z,8.40
2022-12-29T15:23:25.392Z,8.30
2022-12-29T15:25:58.139Z,8.30
2022-12-29T15:28:27.893Z,8.30
2022-12-29T15:31:04.545Z,8.30
2022-12-29T15:33:33.560Z,8.20
2022-12-29T15:36:12.072Z,8.20
2022-12-29T15:38:41.503Z,8.20
2022-12-29T15:41:22.190Z,8.10
2022-12-29T15:44:02.928Z,8.10
2022-12-29T15:46:34.725Z,8.10
2022-12-29T15:49:08.705Z,8.10
2022-12-29T15:51:40.826Z,8.10
2022-12-29T15:54:17.216Z,8.10
2022-12-29T15:56:46.470Z,8.10
2022-12-29T15:59:27.145Z,8.00
2022-12-29T16:01:58.055Z,8.00
2022-12-29T16:04:28.154Z,8.00
2022-12-29T16:07:01.359Z,8.00
2022-12-29T16:09:35.063Z,8.00
2022-12-29T16:12:06.532Z,8.00
2022-12-29T16:14:39.978Z,8.00
2022-12-29T16:17:16.844Z,8.00
2022-12-29T16:19:51.295Z,8.00
2022-12-29T16:22:27.575Z,7.90
2022-12-29T16:25:04.402Z,8.00
2022-12-29T16:27:40.913Z,8.00
2022-12-29T16:30:24.245Z,8.00
2022-12-29T16:32:58.584Z,7.90
2022-12-29T16:35:29.549Z,7.90
2022-12-29T16:38:15.760Z,7.90
2022-12-29T16:40:53.504Z,7.90
2022-12-29T16:43:25.417Z,7.90
2022-12-29T16:46:23.779Z,7.90
2022-12-29T16:48:56.944Z,8.00
2022-12-29T16:51:35.044Z,8.00
2022-12-29T16:54:06.016Z,8.10
2022-12-29T16:56:39.898Z,8.10
2022-12-29T16:59:14.075Z,8.20
2022-12-29T17:01:43.045Z,8.30
2022-12-29T17:04:15.223Z,8.30
2022-12-29T17:06:46.208Z,8.30
2022-12-29T17:09:23.646Z,8.30
2022-12-29T17:12:08.667Z,8.30
2022-12-29T17:14:46.411Z,8.30
2022-12-29T17:17:22.012Z,8.30
2022-12-29T17:19:54.886Z,8.30
2022-12-29T17:22:26.789Z,8.30
2022-12-29T17:24:56.778Z,8.40
2022-12-29T17:27:33.508Z,8.40
2022-12-29T17:30:06.237Z,8.40
2022-12-29T17:32:38.359Z,8.40
2022-12-29T17:35:17.242Z,8.50
2022-12-29T17:37:49.715Z,8.50
2022-12-29T17:40:21.202Z,8.50
2022-12-29T17:42:54.287Z,8.40
2022-12-29T17:45:25.797Z,8.50
2022-12-29T17:47:54.415Z,8.50
2022-12-29T17:50:27.066Z,8.50
2022-12-29T17:53:01.163Z,8.40
2022-12-29T17:55:37.248Z,8.40
2022-12-29T17:58:18.578Z,8.50
2022-12-29T18:00:48.385Z,8.50
2022-12-29T18:03:20.357Z,8.50
2022-12-29T18:05:51.545Z,8.50
2022-12-29T18:08:20.005Z,8.50
2022-12-29T18:10:49.345Z,8.50
2022-12-29T18:13:23.097Z,8.60
2022-12-29T18:15:52.749Z,8.60
2022-12-29T18:18:24.870Z,8.60
2022-12-29T18:20:57.787Z,8.60
2022-12-29T18:23:27.427Z,8.60
2022-12-29T18:26:00.352Z,8.70
2022-12-29T18:28:29.154Z,8.60
2022-12-29T18:31:00.165Z,8.60
2022-12-29T18:33:30.913Z,8.60
2022-12-29T18:36:03.826Z,8.60
2022-12-29T18:38:33.785Z,8.60
2022-12-29T18:41:02.966Z,8.50
2022-12-29T18:43:32.296Z,8.50
2022-12-29T18:46:01.199Z,8.60
2022-12-29T18:48:30.023Z,8.60
2022-12-29T18:51:00.739Z,8.60
2022-12-29T18:53:29.760Z,8.60
2022-12-29T18:55:58.667Z,8.50
2022-12-29T18:58:33.964Z,8.50
2022-12-29T19:01:04.108Z,8.50
2022-12-29T19:03:33.752Z,8.60
2022-12-29T19:06:04.105Z,8.60
2022-12-29T19:08:33.566Z,8.60
2022-12-29T19:11:02.791Z,8.50
2022-12-29T19:13:31.639Z,8.50
2022-12-29T19:16:00.800Z,8.50
2022-12-29T19:18:43.525Z,8.50
2022-12-29T19:21:20.215Z,8.50
2022-12-29T19:23:49.320Z,8.50
2022-12-29T19:26:31.791Z,8.50
2022-12-29T19:29:01.914Z,8.50
2022-12-29T19:31:31.458Z,8.40
2022-12-29T19:34:03.789Z,8.40
2022-12-29T19:36:34.469Z,8.40
2022-12-29T19:39:03.617Z,8.40
2022-12-29T19:41:32.801Z,8.30
2022-12-29T19:44:01.748Z,8.30
2022-12-29T19:46:32.114Z,8.30
2022-12-29T19:49:01.894Z,8.30
2022-12-29T19:51:30.726Z,8.30
2022-12-29T19:54:00.924Z,8.30
2022-12-29T19:56:30.400Z,8.40
2022-12-29T19:58:59.185Z,8.30
2022-12-29T20:01:28.667Z,8.30
2022-12-29T20:03:57.919Z,8.20
2022-12-29T20:06:26.655Z,8.20
2022-12-29T20:08:57.861Z,8.10
2022-12-29T20:11:27.884Z,8.10
2022-12-29T20:13:56.387Z,8.10
2022-12-29T20:16:29.113Z,8.10
2022-12-29T20:18:58.258Z,8.10
2022-12-29T20:21:30.486Z,8.00
2022-12-29T20:23:59.232Z,8.10
2022-12-29T20:26:31.738Z,8.00
2022-12-29T20:29:01.327Z,8.00
2022-12-29T20:31:32.740Z,8.00
2022-12-29T20:34:04.696Z,8.00
2022-12-29T20:36:36.335Z,8.10
2022-12-29T20:39:10.433Z,8.10
2022-12-29T20:41:42.951Z,8.10
2022-12-29T20:44:12.132Z,8.20
2022-12-29T20:46:44.219Z,8.20
2022-12-29T20:49:14.191Z,8.20
2022-12-29T20:54:39.140Z,8.20
2022-12-29T20:57:10.668Z,8.20
2022-12-29T20:59:42.495Z,8.20
2022-12-29T21:02:21.975Z,8.30
2022-12-29T21:07:33.886Z,8.30
2022-12-29T21:10:04.999Z,8.30
2022-12-29T21:12:35.767Z,8.40
2022-12-29T21:15:05.834Z,8.40
2022-12-29T21:17:37.250Z,8.40
2022-12-29T21:20:06.987Z,8.40
2022-12-29T21:22:36.376Z,8.40
2022-12-29T21:25:05.837Z,8.40
2022-12-29T21:27:38.785Z,8.50
2022-12-29T21:30:09.477Z,8.50
2022-12-29T21:32:38.428Z,8.40
2022-12-29T21:35:09.653Z,8.40
2022-12-29T21:37:38.934Z,8.40
2022-12-29T21:40:09.485Z,8.30
2022-12-29T21:42:39.532Z,8.30
2022-12-29T21:45:27.704Z,8.20
2022-12-29T21:48:16.131Z,8.20
2022-12-29T21:50:59.844Z,8.10
2022-12-29T21:53:38.918Z,8.10
2022-12-29T21:56:09.622Z,8.00
2022-12-29T21:58:58.237Z,8.00
2022-12-29T22:01:45.261Z,7.90
2022-12-29T22:04:31.998Z,7.90
2022-12-29T22:07:18.160Z,7.80
2022-12-29T22:10:04.266Z,7.90
2022-12-29T22:12:50.556Z,7.80
2022-12-29T22:15:20.965Z,7.80
2022-12-29T22:17:51.074Z,7.80
2022-12-29T22:20:20.749Z,7.80
2022-12-29T22:22:49.413Z,7.80
2022-12-29T22:25:18.469Z,7.80
2022-12-29T22:27:47.047Z,7.80
2022-12-29T22:30:16.347Z,7.80
2022-12-29T22:32:46.417Z,7.80
2022-12-29T22:35:15.336Z,7.80
2022-12-29T22:37:44.480Z,7.70
2022-12-29T22:40:13.987Z,7.70
2022-12-29T22:42:42.466Z,7.80
2022-12-29T22:45:11.565Z,7.80
2022-12-29T22:47:40.299Z,7.80
2022-12-29T22:50:11.350Z,7.80
2022-12-29T22:52:39.880Z,7.90
2022-12-29T22:55:09.084Z,7.90
2022-12-29T22:57:37.706Z,7.90
2022-12-29T23:00:09.387Z,7.90
2022-12-29T23:02:38.011Z,7.90
2022-12-29T23:05:07.388Z,7.80
2022-12-29T23:07:37.596Z,7.80
2022-12-29T23:10:06.721Z,7.80
2022-12-29T23:12:35.328Z,7.90
2022-12-29T23:15:03.832Z,7.90
2022-12-29T23:17:32.315Z,7.90
2022-12-29T23:20:00.812Z,8.00
2022-12-29T23:22:29.295Z,8.00
2022-12-29T23:24:59.269Z,7.90
2022-12-29T23:27:27.686Z,7.90
2022-12-29T23:29:56.185Z,7.90
2022-12-29T23:32:24.634Z,7.90
2022-12-29T23:34:53.043Z,7.90
2022-12-29T23:37:21.585Z,8.00
2022-12-29T23:39:50.044Z,8.00
2022-12-29T23:42:19.926Z,8.00
2022-12-29T23:44:48.650Z,8.00
2022-12-29T23:47:17.175Z,8.00
2022-12-29T23:49:45.646Z,8.00
2022-12-29T23:52:14.116Z,8.00
2022-12-29T23:54:42.865Z,8.00
2022-12-29T23:57:11.404Z,8.00
2022-12-29T23:59:41.355Z,8.00
